N514DT KGPI-KPVU
Flight info
| Callsign | N514DT |
|---|---|
| Flight time | N/A |
| Altitude | 37000 |
| Route | RIDDG2 SKOTT TCH |
| Aircraft | C550/L-SDFGHRWY/S |
Departure
| Time | 2026-04-24 15:16 |
|---|---|
| Airport | Glacier Park International Airport (KGPI) |
Arrival
| Time | N/A |
|---|---|
| Airport | Provo Municipal Airport (KPVU) |
| Time | Latitude | Longitude | Altitude | Speed | Heading |
|---|---|---|---|---|---|
| 2026-04-24 15:04 | 48.31485 | -114.24766 | 2957 ft | 0 kts | 37° |
| 2026-04-24 15:13 | 48.31486 | -114.24764 | 2958 ft | 1 kts | 37° |
| 2026-04-24 15:13 | 48.31498 | -114.24773 | 2958 ft | 4 kts | 235° |
| 2026-04-24 15:14 | 48.31472 | -114.24844 | 2958 ft | 12 kts | 304° |
| 2026-04-24 15:14 | 48.31552 | -114.24815 | 2958 ft | 15 kts | 37° |
| 2026-04-24 15:14 | 48.31646 | -114.24710 | 2958 ft | 18 kts | 35° |
| 2026-04-24 15:14 | 48.31763 | -114.24592 | 2957 ft | 21 kts | 34° |
| 2026-04-24 15:15 | 48.31845 | -114.24552 | 2957 ft | 7 kts | 328° |
| 2026-04-24 15:15 | 48.31890 | -114.24638 | 2957 ft | 13 kts | 297° |
| 2026-04-24 15:15 | 48.31824 | -114.24743 | 2957 ft | 28 kts | 215° |
| 2026-04-24 15:15 | 48.31368 | -114.25221 | 2996 ft | 122 kts | 215° |
| 2026-04-24 15:16 | 48.30628 | -114.26041 | 3616 ft | 146 kts | 218° |
| 2026-04-24 15:16 | 48.29806 | -114.27055 | 4531 ft | 168 kts | 221° |
| 2026-04-24 15:16 | 48.28847 | -114.28194 | 5573 ft | 188 kts | 219° |
| 2026-04-24 15:16 | 48.27788 | -114.29427 | 6599 ft | 206 kts | 219° |
| 2026-04-24 15:17 | 48.26722 | -114.30880 | 7606 ft | 218 kts | 240° |
| 2026-04-24 15:17 | 48.26420 | -114.33019 | 8655 ft | 213 kts | 270° |
| 2026-04-24 15:17 | 48.26012 | -114.35294 | 9095 ft | 239 kts | 252° |
| 2026-04-24 15:17 | 48.25387 | -114.37685 | 9498 ft | 255 kts | 251° |
| 2026-04-24 15:18 | 48.24633 | -114.40173 | 9904 ft | 268 kts | 250° |
| 2026-04-24 15:18 | 48.23819 | -114.42736 | 10292 ft | 281 kts | 244° |
| 2026-04-24 15:18 | 48.22356 | -114.44714 | 10668 ft | 300 kts | 206° |
| 2026-04-24 15:18 | 48.20320 | -114.45594 | 11067 ft | 308 kts | 197° |
| 2026-04-24 15:19 | 48.18188 | -114.45948 | 11451 ft | 315 kts | 172° |
| 2026-04-24 15:19 | 48.16092 | -114.44939 | 11879 ft | 318 kts | 163° |
| 2026-04-24 15:19 | 48.13925 | -114.44248 | 12480 ft | 312 kts | 164° |
| 2026-04-24 15:19 | 48.12052 | -114.43413 | 14097 ft | 275 kts | 166° |
| 2026-04-24 15:20 | 48.10152 | -114.42731 | 14389 ft | 293 kts | 164° |
| 2026-04-24 15:20 | 48.08111 | -114.41944 | 14447 ft | 313 kts | 165° |
| 2026-04-24 15:20 | 48.05976 | -114.41119 | 14731 ft | 322 kts | 165° |
| 2026-04-24 15:20 | 48.03774 | -114.40282 | 15183 ft | 323 kts | 165° |
| 2026-04-24 15:21 | 48.01612 | -114.39447 | 15673 ft | 323 kts | 165° |
| 2026-04-24 15:21 | 47.99439 | -114.38617 | 16096 ft | 325 kts | 165° |
| 2026-04-24 15:21 | 47.97249 | -114.37778 | 16495 ft | 327 kts | 165° |
| 2026-04-24 15:21 | 47.95065 | -114.36948 | 16878 ft | 329 kts | 165° |
| 2026-04-24 15:22 | 47.92828 | -114.36086 | 17287 ft | 329 kts | 165° |
| 2026-04-24 15:22 | 47.90625 | -114.35249 | 17696 ft | 329 kts | 165° |
| 2026-04-24 15:22 | 47.88395 | -114.34399 | 18079 ft | 330 kts | 165° |
| 2026-04-24 15:23 | 47.83943 | -114.32707 | 18809 ft | 332 kts | 165° |
| 2026-04-24 15:23 | 47.79477 | -114.31012 | 19531 ft | 332 kts | 165° |
| 2026-04-24 15:23 | 47.77230 | -114.30162 | 19829 ft | 334 kts | 165° |
| 2026-04-24 15:24 | 47.70477 | -114.27612 | 20742 ft | 336 kts | 163° |
| 2026-04-24 15:25 | 47.66679 | -114.26176 | 21178 ft | 338 kts | 163° |
| 2026-04-24 15:25 | 47.61362 | -114.24161 | 21815 ft | 339 kts | 162° |
| 2026-04-24 15:26 | 47.54497 | -114.21578 | 22537 ft | 342 kts | 162° |
| 2026-04-24 15:27 | 47.47607 | -114.18991 | 23238 ft | 342 kts | 162° |
| 2026-04-24 15:27 | 47.40649 | -114.16386 | 23851 ft | 344 kts | 161° |